Time;durP1;ratioP1;P1;durP2;ratioP2;P2;SDS_P1;SDS_P2;PMS_P1;PMS_P2;Temp;Humidity;BMP_temperature;BMP_pressure;BME280_temperature;BME280_humidity;BME280_pressure;Samples;Min_cycle;Max_cycle;Signal;HPM_P1;HPM_P2
2024/03/02 00:00:14;;;;;;;1.70;1.53;;;;;;;;;;5016544;28;20525;-89
2024/03/02 00:03:00;;;;;;;1.50;1.23;;;;;;;;;;5017948;28;20460;-88
2024/03/02 00:05:32;;;;;;;1.40;1.30;;;;;;;;;;5020889;28;20462;-88
2024/03/02 00:08:29;;;;;;;1.70;1.60;;;;;;;;;;5025696;28;20450;-88
2024/03/02 00:11:04;;;;;;;1.10;1.10;;;;;;;;;;5014728;28;20493;-87
2024/03/02 00:16:11;;;;;;;1.70;1.40;;;;;;;;;;4998618;28;20534;-89
2024/03/02 00:19:08;;;;;;;2.23;1.40;;;;;;;;;;4999186;28;20765;-89
2024/03/02 00:21:44;;;;;;;2.60;1.60;;;;;;;;;;5001451;28;20514;-90
2024/03/02 00:24:24;;;;;;;1.67;1.57;;;;;;;;;;4991818;28;21252;-89
2024/03/02 00:26:55;;;;;;;1.63;1.50;;;;;;;;;;4982129;28;20456;-88
2024/03/02 00:29:28;;;;;;;1.57;1.47;;;;;;;;;;4983519;28;20459;-88
2024/03/02 00:32:25;;;;;;;5.10;1.57;;;;;;;;;;4984922;28;20898;-88
2024/03/02 00:35:03;;;;;;;2.10;1.40;;;;;;;;;;4968757;28;20506;-89
2024/03/02 00:37:34;;;;;;;1.63;1.53;;;;;;;;;;4976884;28;20524;-88
2024/03/02 00:40:16;;;;;;;1.40;1.00;;;;;;;;;;4983668;28;20452;-89
2024/03/02 00:42:59;;;;;;;1.50;1.40;;;;;;;;;;4985830;28;21342;-88
2024/03/02 00:45:41;;;;;;;1.20;1.10;;;;;;;;;;4993624;28;20605;-88
2024/03/02 00:48:25;;;;;;;1.50;1.40;;;;;;;;;;4998219;28;20452;-88
2024/03/02 00:51:05;;;;;;;1.47;1.37;;;;;;;;;;4998268;28;20452;-91
2024/03/02 00:53:43;;;;;;;1.50;1.33;;;;;;;;;;4984816;28;20466;-87
2024/03/02 00:56:14;;;;;;;1.63;1.50;;;;;;;;;;4997334;28;20456;-87
2024/03/02 00:58:52;;;;;;;2.63;1.27;;;;;;;;;;4990185;28;20472;-87
2024/03/02 01:01:35;;;;;;;1.20;1.10;;;;;;;;;;4985831;28;20506;-88
2024/03/02 01:04:07;;;;;;;3.83;1.80;;;;;;;;;;4979576;28;20531;-88
2024/03/02 01:06:45;;;;;;;1.23;1.10;;;;;;;;;;5004239;28;20482;-88
2024/03/02 01:09:22;;;;;;;1.70;1.07;;;;;;;;;;4983691;28;20544;-89
2024/03/02 01:11:59;;;;;;;2.83;1.60;;;;;;;;;;4984086;28;20487;-89
2024/03/02 01:14:34;;;;;;;1.10;1.00;;;;;;;;;;4985137;28;20479;-88
2024/03/02 01:17:05;;;;;;;1.50;1.20;;;;;;;;;;4993778;28;20469;-87
2024/03/02 01:19:57;;;;;;;1.37;1.27;;;;;;;;;;4986822;28;20471;-88
2024/03/02 01:28:53;;;;;;;1.20;1.10;;;;;;;;;;5506674;23;20487;-90
2024/03/02 01:31:23;;;;;;;1.50;1.40;;;;;;;;;;5048016;28;20440;-90
2024/03/02 01:34:00;;;;;;;1.97;1.23;;;;;;;;;;5034357;28;20491;-89
2024/03/02 01:36:34;;;;;;;1.30;1.20;;;;;;;;;;5056673;28;20460;-90
2024/03/02 01:39:17;;;;;;;2.73;1.60;;;;;;;;;;5036960;28;20460;-90
2024/03/02 01:41:51;;;;;;;2.13;1.50;;;;;;;;;;5058126;28;20475;-91
2024/03/02 01:44:43;;;;;;;1.13;1.03;;;;;;;;;;5059209;28;20473;-91
2024/03/02 01:47:47;;;;;;;;;;;;;;;;;;;;;
2024/03/02 01:50:15;;;;;;;1.43;1.23;;;;;;;;;;5053939;28;20464;-89
2024/03/02 02:03:37;;;;;;;1.63;1.53;;;;;;;;;;5027771;28;20466;-88
2024/03/02 02:06:27;;;;;;;3.43;1.10;;;;;;;;;;5021512;28;20454;-88
2024/03/02 02:09:01;;;;;;;1.30;1.20;;;;;;;;;;5020824;28;20472;-87
2024/03/02 02:11:41;;;;;;;1.10;1.00;;;;;;;;;;5021256;28;20450;-88
2024/03/02 02:14:20;;;;;;;1.90;1.03;;;;;;;;;;5020439;28;20474;-89
2024/03/02 02:16:56;;;;;;;1.47;1.37;;;;;;;;;;5021739;28;20462;-88
2024/03/02 02:19:30;;;;;;;1.20;1.10;;;;;;;;;;5022212;28;20454;-87
2024/03/02 02:22:09;;;;;;;0.90;0.90;;;;;;;;;;5019716;28;20492;-89
2024/03/02 02:24:45;;;;;;;1.03;1.03;;;;;;;;;;5015337;28;20505;-89
2024/03/02 02:27:21;;;;;;;1.10;1.00;;;;;;;;;;5035574;28;20450;-88
2024/03/02 02:30:09;;;;;;;2.40;1.30;;;;;;;;;;5017827;28;20453;-90
2024/03/02 02:32:39;;;;;;;1.40;1.30;;;;;;;;;;5020479;28;20452;-89
2024/03/02 02:35:26;;;;;;;0.90;0.90;;;;;;;;;;5009095;28;20447;-90
2024/03/02 02:37:58;;;;;;;1.20;1.10;;;;;;;;;;5021609;28;20544;-90
2024/03/02 02:40:34;;;;;;;2.10;1.47;;;;;;;;;;5013109;28;20510;-89
2024/03/02 02:43:14;;;;;;;1.33;1.10;;;;;;;;;;5030365;28;20444;-90
2024/03/02 02:45:52;;;;;;;1.83;1.37;;;;;;;;;;5029460;28;20438;-90
2024/03/02 02:48:29;;;;;;;1.23;1.23;;;;;;;;;;5030992;28;20456;-90
2024/03/02 02:54:09;;;;;;;0.97;0.97;;;;;;;;;;5028042;28;20478;-87
2024/03/02 02:56:48;;;;;;;1.07;1.07;;;;;;;;;;5021867;28;20452;-88
2024/03/02 02:59:41;;;;;;;1.70;1.40;;;;;;;;;;5013302;28;20447;-88
2024/03/02 03:02:24;;;;;;;1.00;1.00;;;;;;;;;;5035914;28;20459;-89
2024/03/02 03:05:04;;;;;;;;;;;;;;;;;;;;;
2024/03/02 03:07:57;;;;;;;2.50;1.30;;;;;;;;;;5032999;28;20494;-90
2024/03/02 03:10:33;;;;;;;2.20;1.53;;;;;;;;;;5011809;28;20455;-88
2024/03/02 03:13:21;;;;;;;1.43;1.10;;;;;;;;;;5025727;28;20474;-89
2024/03/02 03:15:56;;;;;;;1.40;1.30;;;;;;;;;;5036596;28;20485;-89
2024/03/02 03:18:26;;;;;;;1.57;1.20;;;;;;;;;;5015634;28;20447;-90
2024/03/02 03:21:07;;;;;;;1.50;1.30;;;;;;;;;;5021955;28;20450;-89
2024/03/02 03:23:41;;;;;;;1.37;1.10;;;;;;;;;;5014863;28;20553;-87
2024/03/02 03:26:15;;;;;;;1.77;1.60;;;;;;;;;;5014087;28;20454;-88
2024/03/02 03:28:48;;;;;;;1.10;1.10;;;;;;;;;;4999834;28;20462;-87
2024/03/02 03:31:20;;;;;;;1.47;1.27;;;;;;;;;;5014770;28;20446;-88
2024/03/02 03:34:04;;;;;;;1.40;1.30;;;;;;;;;;5001189;28;20451;-90
2024/03/02 03:36:39;;;;;;;1.67;1.57;;;;;;;;;;5002081;28;20451;-89
2024/03/02 03:39:09;;;;;;;1.47;1.37;;;;;;;;;;4998080;28;20455;-89
2024/03/02 03:41:50;;;;;;;1.13;1.03;;;;;;;;;;5016831;28;20473;-89
2024/03/02 03:44:24;;;;;;;1.70;1.00;;;;;;;;;;5040415;28;20559;-90
2024/03/02 03:47:07;;;;;;;1.60;1.47;;;;;;;;;;5017109;28;20454;-88
2024/03/02 03:49:40;;;;;;;1.27;1.20;;;;;;;;;;5013139;28;20462;-88
2024/03/02 03:52:14;;;;;;;1.83;1.33;;;;;;;;;;5007412;28;20512;-88
2024/03/02 03:54:44;;;;;;;2.17;1.27;;;;;;;;;;5007914;28;20538;-88
2024/03/02 03:57:20;;;;;;;1.63;1.37;;;;;;;;;;5013907;28;20469;-89
2024/03/02 04:00:10;;;;;;;1.17;1.07;;;;;;;;;;5005454;28;20458;-89
2024/03/02 04:03:00;;;;;;;2.30;1.50;;;;;;;;;;5006424;28;21009;-88
2024/03/02 04:05:30;;;;;;;2.93;1.27;;;;;;;;;;5017032;28;20446;-90
2024/03/02 04:08:01;;;;;;;1.33;1.30;;;;;;;;;;5015345;28;20479;-89
2024/03/02 04:10:44;;;;;;;1.60;1.10;;;;;;;;;;5013751;28;20469;-88
2024/03/02 04:13:35;;;;;;;1.43;1.20;;;;;;;;;;5011015;28;20569;-87
2024/03/02 04:16:04;;;;;;;1.97;1.40;;;;;;;;;;5014782;28;20458;-88
2024/03/02 04:18:39;;;;;;;1.83;1.73;;;;;;;;;;5014482;28;20491;-89
2024/03/02 04:21:15;;;;;;;1.43;1.33;;;;;;;;;;5016267;28;20500;-88
2024/03/02 04:23:51;;;;;;;3.53;1.63;;;;;;;;;;5015250;28;20473;-87
2024/03/02 04:26:30;;;;;;;1.67;1.40;;;;;;;;;;5029228;28;20453;-89
2024/03/02 04:29:02;;;;;;;4.27;1.83;;;;;;;;;;5030080;28;20458;-89
2024/03/02 04:31:39;;;;;;;2.30;1.10;;;;;;;;;;5030524;28;20446;-90
2024/03/02 04:34:24;;;;;;;1.23;1.10;;;;;;;;;;5001167;28;20562;-87
2024/03/02 04:37:18;;;;;;;1.37;1.13;;;;;;;;;;5004151;28;20435;-89
2024/03/02 04:39:56;;;;;;;2.60;1.67;;;;;;;;;;5022695;28;20426;-90
2024/03/02 04:42:26;;;;;;;0.90;0.90;;;;;;;;;;5020342;28;20490;-90
2024/03/02 04:44:58;;;;;;;2.60;1.37;;;;;;;;;;5020530;28;20458;-90
2024/03/02 04:47:32;;;;;;;1.33;1.23;;;;;;;;;;5012687;28;20526;-87
2024/03/02 04:50:03;;;;;;;1.27;1.17;;;;;;;;;;5032797;23;20494;-87
2024/03/02 04:52:36;;;;;;;1.67;1.40;;;;;;;;;;5013026;28;20553;-85
2024/03/02 04:58:00;;;;;;;;;;;;;;;;;;;;;
2024/03/02 05:00:42;;;;;;;3.00;1.50;;;;;;;;;;5024019;28;20493;-87
2024/03/02 05:03:19;;;;;;;1.70;1.60;;;;;;;;;;5008425;28;20482;-89
2024/03/02 05:05:53;;;;;;;2.10;1.53;;;;;;;;;;5001799;28;20542;-88
2024/03/02 05:08:35;;;;;;;1.63;1.53;;;;;;;;;;5008211;28;20485;-89
2024/03/02 05:13:56;;;;;;;1.63;1.50;;;;;;;;;;5015200;28;20474;-89
2024/03/02 05:16:29;;;;;;;1.50;1.40;;;;;;;;;;5006558;28;20734;-90
2024/03/02 05:19:06;;;;;;;3.10;1.80;;;;;;;;;;4993258;28;20497;-89
2024/03/02 05:21:34;;;;;;;3.47;1.43;;;;;;;;;;5006044;28;20434;-88
2024/03/02 05:24:07;;;;;;;1.67;1.33;;;;;;;;;;5005578;28;20463;-88
2024/03/02 05:26:53;;;;;;;1.53;1.43;;;;;;;;;;5007624;28;20446;-89
2024/03/02 05:29:41;;;;;;;4.33;1.60;;;;;;;;;;4999463;28;20470;-89
2024/03/02 05:32:25;;;;;;;1.60;1.50;;;;;;;;;;5008747;28;20450;-89
2024/03/02 05:34:55;;;;;;;1.50;1.40;;;;;;;;;;5003854;28;20490;-89
2024/03/02 05:37:23;;;;;;;2.87;1.63;;;;;;;;;;5009244;28;20454;-89
2024/03/02 05:40:05;;;;;;;1.73;1.63;;;;;;;;;;5006832;28;20518;-88
2024/03/02 05:42:41;;;;;;;2.17;1.70;;;;;;;;;;5004918;28;20489;-89
2024/03/02 05:45:40;;;;;;;2.03;1.93;;;;;;;;;;5004812;28;20470;-90
2024/03/02 05:48:23;;;;;;;2.00;1.80;;;;;;;;;;5014581;28;20720;-88
2024/03/02 05:51:01;;;;;;;1.70;1.60;;;;;;;;;;4990499;28;20459;-88
2024/03/02 05:53:50;;;;;;;2.87;2.00;;;;;;;;;;5004875;28;20492;-88
2024/03/02 05:56:23;;;;;;;1.80;1.70;;;;;;;;;;5008193;28;21193;-89
2024/03/02 05:59:15;;;;;;;2.00;1.60;;;;;;;;;;4999877;28;20480;-88
2024/03/02 06:02:02;;;;;;;1.90;1.47;;;;;;;;;;5006445;28;20458;-88
2024/03/02 06:04:51;;;;;;;4.20;1.80;;;;;;;;;;5013333;28;20475;-87
2024/03/02 06:07:24;;;;;;;2.30;1.80;;;;;;;;;;5023716;28;20525;-89
2024/03/02 06:10:17;;;;;;;2.50;2.30;;;;;;;;;;5005478;28;20997;-89
2024/03/02 06:13:04;;;;;;;2.63;2.03;;;;;;;;;;5006964;28;20465;-89
2024/03/02 06:15:54;;;;;;;2.60;1.90;;;;;;;;;;5004103;28;20457;-88
2024/03/02 06:18:32;;;;;;;2.00;1.80;;;;;;;;;;5026268;28;20445;-89
2024/03/02 06:21:06;;;;;;;2.50;2.30;;;;;;;;;;5018449;28;20495;-89
2024/03/02 06:23:39;;;;;;;2.40;2.20;;;;;;;;;;5005932;28;20510;-90
2024/03/02 06:26:15;;;;;;;2.43;2.23;;;;;;;;;;5004096;28;20457;-88
2024/03/02 06:29:03;;;;;;;2.20;1.93;;;;;;;;;;5004857;28;20509;-89
2024/03/02 06:31:49;;;;;;;;;;;;;;;;;;;;;
2024/03/02 06:34:51;;;;;;;3.50;1.60;;;;;;;;;;5025300;28;20436;-88
2024/03/02 06:37:42;;;;;;;2.73;2.00;;;;;;;;;;5014831;28;20434;-88
2024/03/02 06:40:25;;;;;;;1.87;1.77;;;;;;;;;;4974536;28;20458;-88
2024/03/02 06:43:11;;;;;;;3.43;2.07;;;;;;;;;;5027187;28;20474;-88
2024/03/02 06:46:01;;;;;;;2.43;2.23;;;;;;;;;;5012982;28;20461;-90
2024/03/02 06:48:55;;;;;;;3.47;1.70;;;;;;;;;;5014261;28;20486;-88
2024/03/02 06:51:30;;;;;;;2.00;1.90;;;;;;;;;;5014782;28;20522;-89
2024/03/02 06:54:08;;;;;;;2.53;2.33;;;;;;;;;;5021910;28;20477;-89
2024/03/02 06:56:56;;;;;;;2.97;2.10;;;;;;;;;;5022737;28;20477;-89
2024/03/02 06:59:29;;;;;;;2.53;2.00;;;;;;;;;;4995494;28;20443;-87
2024/03/02 07:02:05;;;;;;;3.27;2.50;;;;;;;;;;5017699;28;20462;-88
2024/03/02 07:04:38;;;;;;;3.70;1.93;;;;;;;;;;5013188;28;20530;-87
2024/03/02 07:07:20;;;;;;;2.40;2.20;;;;;;;;;;5018629;28;20451;-89
2024/03/02 07:09:53;;;;;;;1.70;1.60;;;;;;;;;;5009336;28;20457;-88
2024/03/02 07:12:30;;;;;;;3.07;2.47;;;;;;;;;;5012108;28;20975;-89
2024/03/02 07:17:53;;;;;;;3.07;2.00;;;;;;;;;;5035395;28;20489;-89
2024/03/02 07:23:40;;;;;;;;;;;;;;;;;;;;;
2024/03/02 07:26:18;;;;;;;2.77;2.57;;;;;;;;;;5027157;28;20521;-87
2024/03/02 07:28:57;;;;;;;5.63;2.80;;;;;;;;;;5009772;28;20529;-89
2024/03/02 07:34:34;;;;;;;2.03;1.80;;;;;;;;;;5023193;28;20474;-88
2024/03/02 07:37:20;;;;;;;3.33;2.10;;;;;;;;;;5002151;28;20450;-87
2024/03/02 07:45:07;;;;;;;2.20;2.00;;;;;;;;;;5027072;28;20509;-87
2024/03/02 07:47:47;;;;;;;2.40;2.10;;;;;;;;;;5008166;28;20573;-88
2024/03/02 07:50:21;;;;;;;1.80;1.70;;;;;;;;;;5003554;28;20538;-87
2024/03/02 07:52:59;;;;;;;3.43;2.40;;;;;;;;;;5010730;28;20464;-88
2024/03/02 07:55:27;;;;;;;1.93;1.83;;;;;;;;;;5018376;28;20438;-89
2024/03/02 07:58:03;;;;;;;2.40;2.20;;;;;;;;;;4999979;28;20455;-88
2024/03/02 08:00:46;;;;;;;;;;;;;;;;;;;;;
2024/03/02 08:03:32;;;;;;;1.97;1.87;;;;;;;;;;5042893;28;20476;-88
2024/03/02 08:06:14;;;;;;;;;;;;;;;;;;;;;
2024/03/02 08:08:53;;;;;;;;;;;;;;;;;;;;;
2024/03/02 08:11:34;;;;;;;3.43;1.97;;;;;;;;;;5025520;28;20454;-90
2024/03/02 08:14:03;;;;;;;10.50;3.13;;;;;;;;;;5011281;28;20467;-87
2024/03/02 08:16:45;;;;;;;2.37;2.17;;;;;;;;;;5010973;28;21000;-89
2024/03/02 08:19:24;;;;;;;2.53;2.33;;;;;;;;;;5022900;28;20446;-87
2024/03/02 08:22:31;;;;;;;2.83;2.20;;;;;;;;;;5006175;28;20523;-87
2024/03/02 08:25:02;;;;;;;5.30;2.20;;;;;;;;;;4998126;28;20487;-88
2024/03/02 08:27:37;;;;;;;2.10;1.83;;;;;;;;;;5010336;28;20453;-88
2024/03/02 08:30:06;;;;;;;3.97;2.30;;;;;;;;;;5006469;28;20454;-88
2024/03/02 08:32:40;;;;;;;3.30;2.00;;;;;;;;;;5015812;28;20430;-87
2024/03/02 08:35:22;;;;;;;1.97;1.87;;;;;;;;;;5013278;28;21142;-90
2024/03/02 08:38:05;;;;;;;1.70;1.60;;;;;;;;;;5014096;28;20465;-88
2024/03/02 08:40:41;;;;;;;1.73;1.63;;;;;;;;;;5006439;28;20581;-89
2024/03/02 08:45:47;;;;;;;1.53;1.43;;;;;;;;;;5090434;22;20484;-88
2024/03/02 08:48:20;;;;;;;1.87;1.63;;;;;;;;;;5029340;28;20466;-87
2024/03/02 08:50:59;;;;;;;2.17;2.00;;;;;;;;;;5034144;28;20452;-87
2024/03/02 08:53:34;;;;;;;2.07;1.40;;;;;;;;;;5023269;28;20465;-90
2024/03/02 08:56:24;;;;;;;2.57;2.13;;;;;;;;;;5020278;28;20487;-88
2024/03/02 08:58:54;;;;;;;1.97;1.77;;;;;;;;;;5038457;28;20552;-89
2024/03/02 09:01:53;;;;;;;2.50;1.80;;;;;;;;;;5024930;28;20450;-88
2024/03/02 09:04:32;;;;;;;3.07;1.43;;;;;;;;;;5029521;28;20473;-89
2024/03/02 09:07:14;;;;;;;2.33;1.73;;;;;;;;;;5030508;28;20461;-91
2024/03/02 09:10:03;;;;;;;2.30;1.60;;;;;;;;;;5030991;28;20456;-90
2024/03/02 09:12:48;;;;;;;1.80;1.40;;;;;;;;;;5041526;28;20461;-88
2024/03/02 09:15:21;;;;;;;2.00;1.87;;;;;;;;;;5024171;28;20508;-88
2024/03/02 09:18:03;;;;;;;4.10;1.40;;;;;;;;;;5031543;28;20454;-89
2024/03/02 09:20:36;;;;;;;2.40;2.10;;;;;;;;;;5036828;28;20459;-89
2024/03/02 09:23:05;;;;;;;3.37;2.00;;;;;;;;;;5055605;28;20459;-90
2024/03/02 09:25:42;;;;;;;1.80;1.70;;;;;;;;;;5040271;28;20463;-87
2024/03/02 09:28:27;;;;;;;2.00;1.60;;;;;;;;;;5040014;28;20433;-88
2024/03/02 09:36:29;;;;;;;1.60;1.40;;;;;;;;;;5073718;26;20460;-89
2024/03/02 09:39:03;;;;;;;2.17;1.40;;;;;;;;;;5067440;28;20519;-90
2024/03/02 09:41:41;;;;;;;1.80;1.70;;;;;;;;;;5069961;28;20471;-88
2024/03/02 09:44:25;;;;;;;1.70;1.60;;;;;;;;;;5052707;28;20547;-89
2024/03/02 09:46:56;;;;;;;1.60;1.50;;;;;;;;;;5054939;28;20476;-90
2024/03/02 09:49:46;;;;;;;1.37;1.27;;;;;;;;;;5045352;28;20453;-88
2024/03/02 09:52:37;;;;;;;2.20;1.07;;;;;;;;;;5047602;28;20484;-89
2024/03/02 09:55:18;;;;;;;1.27;1.07;;;;;;;;;;5049272;28;20468;-87
2024/03/02 09:58:06;;;;;;;2.00;1.40;;;;;;;;;;5048787;28;20416;-89
2024/03/02 10:00:42;;;;;;;1.13;1.07;;;;;;;;;;5050122;28;20633;-88
2024/03/02 10:03:24;;;;;;;3.87;1.20;;;;;;;;;;5048909;28;20481;-89
2024/03/02 10:06:12;;;;;;;1.70;1.60;;;;;;;;;;5049699;28;20515;-89
2024/03/02 10:09:14;;;;;;;1.20;1.03;;;;;;;;;;5034938;28;20428;-88
2024/03/02 10:12:08;;;;;;;2.50;1.97;;;;;;;;;;5051480;28;20457;-90
2024/03/02 10:15:10;;;;;;;3.20;2.07;;;;;;;;;;5054553;28;20498;-90
2024/03/02 10:17:53;;;;;;;;;;;;;;;;;;;;;
2024/03/02 10:27:43;;;;;;;4.57;1.53;;;;;;;;;;5019818;28;20519;-87
2024/03/02 10:34:25;;;;;;;2.30;1.30;;;;;;;;;;4971103;29;20472;-89
2024/03/02 10:40:39;;;;;;;;;;;;;;;;;;;;;
2024/03/02 10:43:37;;;;;;;;;;;;;;;;;;;;;
2024/03/02 10:46:26;;;;;;;2.83;1.50;;;;;;;;;;4969710;29;20444;-87
2024/03/02 10:49:03;;;;;;;1.60;1.50;;;;;;;;;;4972045;28;20453;-90
2024/03/02 10:52:04;;;;;;;1.93;1.80;;;;;;;;;;4886085;29;20437;-88
2024/03/02 10:55:21;;;;;;;1.60;1.43;;;;;;;;;;5054430;28;20460;-88
2024/03/02 10:58:23;;;;;;;1.83;1.60;;;;;;;;;;5037432;28;20449;-88
2024/03/02 11:01:19;;;;;;;1.70;1.60;;;;;;;;;;5063110;28;20440;-88
2024/03/02 11:04:10;;;;;;;1.70;1.53;;;;;;;;;;5050551;28;20476;-88
2024/03/02 11:07:14;;;;;;;2.47;1.40;;;;;;;;;;5046978;28;20763;-87
2024/03/02 11:10:09;;;;;;;2.07;1.33;;;;;;;;;;5054261;28;20496;-86
2024/03/02 11:13:06;;;;;;;1.60;1.50;;;;;;;;;;5060329;28;20488;-88
2024/03/02 11:16:00;;;;;;;1.43;1.10;;;;;;;;;;4986879;28;20456;-88
2024/03/02 11:18:33;;;;;;;1.33;1.23;;;;;;;;;;5052288;28;20448;-90
2024/03/02 11:24:36;;;;;;;1.13;1.07;;;;;;;;;;5073039;28;20513;-90
2024/03/02 11:43:48;;;;;;;2.20;1.47;;;;;;;;;;5126739;23;20480;-87
2024/03/02 11:55:04;;;;;;;1.80;1.70;;;;;;;;;;5053662;28;20466;-88
2024/03/02 11:57:47;;;;;;;;;;;;;;;;;;;;;
2024/03/02 12:00:35;;;;;;;3.83;1.50;;;;;;;;;;5039239;28;20465;-89
2024/03/02 12:03:25;;;;;;;3.63;1.53;;;;;;;;;;5016644;28;20469;-88
2024/03/02 12:06:05;;;;;;;1.43;1.40;;;;;;;;;;5022265;28;20434;-89
2024/03/02 12:08:54;;;;;;;1.33;1.23;;;;;;;;;;5022974;28;20439;-88
2024/03/02 12:12:10;;;;;;;1.23;1.13;;;;;;;;;;5019528;28;20481;-89
2024/03/02 12:15:00;;;;;;;1.10;1.00;;;;;;;;;;5041107;28;20776;-88
2024/03/02 12:18:22;;;;;;;2.03;1.23;;;;;;;;;;5043305;28;20425;-88
2024/03/02 12:21:08;;;;;;;1.17;1.10;;;;;;;;;;5026244;28;20433;-89
2024/03/02 12:24:02;;;;;;;;;;;;;;;;;;;;;
2024/03/02 12:32:27;;;;;;;1.30;1.00;;;;;;;;;;5063836;28;20476;-89
2024/03/02 12:45:56;;;;;;;0.80;0.80;;;;;;;;;;5046266;28;20465;-89
2024/03/02 12:48:42;;;;;;;1.33;1.07;;;;;;;;;;5031241;28;20492;-89
2024/03/02 12:51:26;;;;;;;0.90;0.90;;;;;;;;;;5033883;28;20430;-91
2024/03/02 12:54:14;;;;;;;1.00;0.80;;;;;;;;;;5032592;28;20449;-88
2024/03/02 12:56:58;;;;;;;1.00;0.90;;;;;;;;;;5036586;28;20446;-89
2024/03/02 12:59:37;;;;;;;1.13;1.00;;;;;;;;;;4981534;28;20478;-88
2024/03/02 13:02:39;;;;;;;1.47;1.17;;;;;;;;;;4989133;28;20470;-88
2024/03/02 13:05:18;;;;;;;0.80;0.80;;;;;;;;;;4971265;28;20484;-89
2024/03/02 13:08:04;;;;;;;1.60;1.23;;;;;;;;;;4987865;28;20841;-90
2024/03/02 13:13:34;;;;;;;1.60;1.43;;;;;;;;;;4995650;28;20572;-88
2024/03/02 13:16:40;;;;;;;1.30;1.20;;;;;;;;;;4972238;28;20439;-87
2024/03/02 13:26:30;;;;;;;3.37;1.20;;;;;;;;;;4991454;28;20436;-89
2024/03/02 13:29:20;;;;;;;1.20;1.10;;;;;;;;;;5027386;28;20469;-88
2024/03/02 13:32:02;;;;;;;1.77;0.73;;;;;;;;;;5042411;28;20457;-91
2024/03/02 13:34:35;;;;;;;1.63;1.30;;;;;;;;;;5031218;28;20477;-88
2024/03/02 13:37:26;;;;;;;1.67;1.27;;;;;;;;;;5027127;28;20457;-87
2024/03/02 13:40:19;;;;;;;1.37;1.27;;;;;;;;;;5032666;28;20453;-88
2024/03/02 13:43:12;;;;;;;1.67;1.27;;;;;;;;;;5045500;28;20449;-89
2024/03/02 13:46:16;;;;;;;1.13;0.97;;;;;;;;;;4978945;28;20519;-89
2024/03/02 13:49:03;;;;;;;1.90;0.93;;;;;;;;;;4973714;28;20440;-89
2024/03/02 13:51:48;;;;;;;1.43;1.07;;;;;;;;;;4984936;28;20464;-88
2024/03/02 13:54:32;;;;;;;0.57;0.57;;;;;;;;;;4972583;28;20483;-89
2024/03/02 13:57:27;;;;;;;0.90;0.60;;;;;;;;;;4981544;28;20460;-88
2024/03/02 14:00:20;;;;;;;0.87;0.80;;;;;;;;;;4978264;28;20453;-88
2024/03/02 14:03:16;;;;;;;1.00;0.80;;;;;;;;;;4972358;28;20511;-89
2024/03/02 14:05:53;;;;;;;1.33;0.60;;;;;;;;;;5024569;28;20458;-89
2024/03/02 14:08:37;;;;;;;0.77;0.77;;;;;;;;;;5030702;28;20453;-88
2024/03/02 14:11:19;;;;;;;0.83;0.70;;;;;;;;;;5025113;28;20464;-89
2024/03/02 14:14:08;;;;;;;0.87;0.70;;;;;;;;;;5031171;28;20584;-89
2024/03/02 14:17:16;;;;;;;0.93;0.80;;;;;;;;;;5033960;28;20445;-89
2024/03/02 14:20:02;;;;;;;1.33;0.97;;;;;;;;;;5022695;28;20467;-90
2024/03/02 14:22:55;;;;;;;1.50;0.93;;;;;;;;;;5028657;28;20468;-89
2024/03/02 14:25:29;;;;;;;1.03;0.93;;;;;;;;;;5034689;28;20505;-90
2024/03/02 14:28:12;;;;;;;1.00;0.97;;;;;;;;;;5014242;28;20454;-91
2024/03/02 14:31:07;;;;;;;0.97;0.90;;;;;;;;;;5056107;28;20465;-90
2024/03/02 14:36:57;;;;;;;3.90;1.10;;;;;;;;;;5026728;28;20457;-87
2024/03/02 14:39:41;;;;;;;1.33;1.23;;;;;;;;;;5048909;28;20449;-88
2024/03/02 14:42:22;;;;;;;1.10;1.00;;;;;;;;;;5051561;28;20448;-90
2024/03/02 14:44:53;;;;;;;1.30;1.10;;;;;;;;;;5029942;28;20541;-89
2024/03/02 14:47:43;;;;;;;2.20;1.33;;;;;;;;;;5032229;28;20433;-90
2024/03/02 14:50:29;;;;;;;0.90;0.90;;;;;;;;;;5029582;28;20787;-90
2024/03/02 14:53:02;;;;;;;1.60;0.97;;;;;;;;;;5023288;28;20453;-88
2024/03/02 14:55:52;;;;;;;1.13;0.90;;;;;;;;;;5045101;28;20455;-89
2024/03/02 14:58:39;;;;;;;1.20;1.10;;;;;;;;;;5041087;28;20460;-88
2024/03/02 15:01:24;;;;;;;1.60;1.50;;;;;;;;;;5027255;28;20448;-90
2024/03/02 15:04:24;;;;;;;3.23;1.13;;;;;;;;;;5036089;28;20517;-89
2024/03/02 15:06:57;;;;;;;2.10;0.80;;;;;;;;;;5028776;28;20446;-89
2024/03/02 15:09:50;;;;;;;1.30;0.80;;;;;;;;;;5033320;28;20450;-87
2024/03/02 15:12:37;;;;;;;1.17;1.00;;;;;;;;;;5039575;28;20427;-88
2024/03/02 15:15:11;;;;;;;2.10;1.00;;;;;;;;;;5036947;28;20537;-88
2024/03/02 15:17:53;;;;;;;1.97;1.00;;;;;;;;;;5054484;28;20500;-90
2024/03/02 15:20:35;;;;;;;1.10;1.00;;;;;;;;;;5039805;28;20960;-89
2024/03/02 15:25:51;;;;;;;1.57;1.00;;;;;;;;;;5033864;22;20494;-89
2024/03/02 15:28:34;;;;;;;1.50;1.10;;;;;;;;;;5035910;28;20949;-90
2024/03/02 15:31:15;;;;;;;0.73;0.73;;;;;;;;;;5038678;28;20525;-89
2024/03/02 15:33:53;;;;;;;1.00;1.00;;;;;;;;;;5034473;28;20468;-90
2024/03/02 15:36:26;;;;;;;1.00;1.00;;;;;;;;;;5044633;28;20471;-87
2024/03/02 15:39:07;;;;;;;1.20;1.10;;;;;;;;;;5048289;28;20560;-88
2024/03/02 15:41:56;;;;;;;1.23;1.13;;;;;;;;;;5039354;28;20537;-88
2024/03/02 15:44:53;;;;;;;1.00;1.00;;;;;;;;;;5022290;28;20562;-86
2024/03/02 15:47:33;;;;;;;1.13;1.10;;;;;;;;;;5050486;28;20517;-87
2024/03/02 15:50:14;;;;;;;1.53;1.00;;;;;;;;;;5408249;22;20490;-89
2024/03/02 16:01:30;;;;;;;1.13;0.90;;;;;;;;;;5027636;28;20457;-88
2024/03/02 16:04:26;;;;;;;1.00;0.70;;;;;;;;;;5010929;28;20486;-88
2024/03/02 16:07:04;;;;;;;0.73;0.70;;;;;;;;;;4990375;28;20509;-88
2024/03/02 16:09:36;;;;;;;1.00;0.90;;;;;;;;;;4999017;28;20447;-89
2024/03/02 16:12:23;;;;;;;0.70;0.70;;;;;;;;;;4992783;28;20478;-88
2024/03/02 16:15:03;;;;;;;0.70;0.70;;;;;;;;;;5002088;28;20458;-88
2024/03/02 16:17:58;;;;;;;0.80;0.80;;;;;;;;;;5018226;28;20480;-88
2024/03/02 16:20:57;;;;;;;0.77;0.77;;;;;;;;;;4990082;28;20507;-89
2024/03/02 16:23:50;;;;;;;1.03;0.90;;;;;;;;;;5000481;28;20477;-91
2024/03/02 16:26:36;;;;;;;1.23;1.13;;;;;;;;;;5005706;28;20446;-88
2024/03/02 16:29:05;;;;;;;1.53;0.73;;;;;;;;;;4978255;28;20446;-88
2024/03/02 16:31:34;;;;;;;0.80;0.77;;;;;;;;;;5012866;28;20446;-89
2024/03/02 16:34:12;;;;;;;1.10;0.80;;;;;;;;;;4990138;28;20479;-88
2024/03/02 16:40:58;;;;;;;0.70;0.70;;;;;;;;;;4964346;28;20437;-88
2024/03/02 16:43:38;;;;;;;1.10;0.90;;;;;;;;;;4945634;28;20467;-89
2024/03/02 16:46:22;;;;;;;0.83;0.80;;;;;;;;;;4948587;29;20441;-88
2024/03/02 16:49:21;;;;;;;1.30;0.80;;;;;;;;;;4991184;28;20458;-89
2024/03/02 16:52:08;;;;;;;1.20;1.10;;;;;;;;;;4956816;28;20427;-89
2024/03/02 16:54:39;;;;;;;0.90;0.90;;;;;;;;;;4998558;28;20482;-89
2024/03/02 16:57:11;;;;;;;1.20;1.10;;;;;;;;;;4996000;28;20474;-89
2024/03/02 16:59:55;;;;;;;1.23;0.90;;;;;;;;;;4986428;28;20461;-90
2024/03/02 17:02:31;;;;;;;2.70;1.10;;;;;;;;;;4994737;28;20451;-90
2024/03/02 17:05:09;;;;;;;0.80;0.80;;;;;;;;;;5001630;28;20474;-88
2024/03/02 17:08:06;;;;;;;1.23;1.00;;;;;;;;;;5004560;28;20550;-89
2024/03/02 17:10:45;;;;;;;;;;;;;;;;;;;;;
2024/03/02 17:13:34;;;;;;;2.23;1.00;;;;;;;;;;5008019;28;20466;-89
2024/03/02 17:16:05;;;;;;;1.23;1.03;;;;;;;;;;4982133;28;20912;-88
2024/03/02 17:18:48;;;;;;;1.20;1.10;;;;;;;;;;4993147;28;20466;-89
2024/03/02 17:21:31;;;;;;;1.20;1.00;;;;;;;;;;4986144;28;20455;-90
2024/03/02 17:24:24;;;;;;;1.30;1.00;;;;;;;;;;5020474;28;20475;-90
2024/03/02 17:27:00;;;;;;;1.40;1.30;;;;;;;;;;5025704;28;20485;-89
2024/03/02 17:29:28;;;;;;;1.33;1.23;;;;;;;;;;5001008;28;20455;-89
2024/03/02 17:32:05;;;;;;;1.30;1.17;;;;;;;;;;4998839;28;20515;-88
2024/03/02 17:34:47;;;;;;;1.20;1.10;;;;;;;;;;4999795;28;20454;-87
2024/03/02 17:37:26;;;;;;;2.27;1.47;;;;;;;;;;5003741;28;20430;-88
2024/03/02 17:39:54;;;;;;;1.33;1.10;;;;;;;;;;5016539;28;20456;-88
2024/03/02 17:42:43;;;;;;;1.43;0.80;;;;;;;;;;5000001;28;20439;-90
2024/03/02 17:45:15;;;;;;;1.00;0.80;;;;;;;;;;5025765;28;20494;-90
2024/03/02 17:47:48;;;;;;;0.80;0.80;;;;;;;;;;5008407;28;20517;-88
2024/03/02 17:50:25;;;;;;;2.50;1.10;;;;;;;;;;4986281;28;20530;-88
2024/03/02 17:52:55;;;;;;;1.20;0.97;;;;;;;;;;4995838;28;20459;-88
2024/03/02 17:55:42;;;;;;;1.33;1.23;;;;;;;;;;5001010;28;20474;-89
2024/03/02 17:58:15;;;;;;;1.43;1.23;;;;;;;;;;4989106;28;20519;-88
2024/03/02 18:00:49;;;;;;;1.20;1.10;;;;;;;;;;5003811;28;20537;-88
2024/03/02 18:03:21;;;;;;;1.57;1.47;;;;;;;;;;5005742;28;20482;-89
2024/03/02 18:06:13;;;;;;;;;;;;;;;;;;;;;
2024/03/02 18:09:00;;;;;;;1.30;1.20;;;;;;;;;;5003518;28;20439;-90
2024/03/02 18:11:29;;;;;;;0.97;0.87;;;;;;;;;;5020326;28;20470;-90
2024/03/02 18:14:05;;;;;;;1.40;1.20;;;;;;;;;;4993841;28;20460;-91
2024/03/02 18:16:40;;;;;;;2.10;1.40;;;;;;;;;;5007756;28;20443;-89
2024/03/02 18:19:19;;;;;;;1.10;1.10;;;;;;;;;;4968348;28;20528;-88
2024/03/02 18:22:04;;;;;;;1.83;1.73;;;;;;;;;;5006895;28;20443;-87
2024/03/02 18:24:49;;;;;;;1.27;1.17;;;;;;;;;;5020319;28;20490;-88
2024/03/02 18:27:24;;;;;;;1.40;1.30;;;;;;;;;;5001701;28;20488;-88
2024/03/02 18:30:03;;;;;;;3.47;1.40;;;;;;;;;;4996645;28;20455;-88
2024/03/02 18:33:08;;;;;;;1.90;1.80;;;;;;;;;;4997538;28;20447;-87
2024/03/02 18:35:56;;;;;;;1.73;1.60;;;;;;;;;;5014886;28;20505;-88
2024/03/02 18:38:30;;;;;;;2.20;1.60;;;;;;;;;;5004815;28;20458;-88
2024/03/02 18:41:09;;;;;;;1.70;1.40;;;;;;;;;;4992406;28;20454;-88
2024/03/02 18:43:37;;;;;;;1.70;1.60;;;;;;;;;;4998689;28;20469;-89